Time;durP1;ratioP1;P1;durP2;ratioP2;P2;SDS_P1;SDS_P2;PMS_P1;PMS_P2;Temp;Humidity;BMP_temperature;BMP_pressure;BME280_temperature;BME280_humidity;BME280_pressure;Samples;Min_cycle;Max_cycle;Signal;HPM_P1;HPM_P2
2021/07/03 00:01:21;;;;;;;;;13.25;12.75;;;;;24.86;47.83;100852.47;5076416;28;45535;-51
2021/07/03 00:03:46;;;;;;;;;13.25;13.00;;;;;24.85;48.20;100845.31;5067658;27;45242;-54
2021/07/03 00:06:12;;;;;;;;;16.00;15.00;;;;;24.82;48.10;100850.97;5062626;27;46967;-53
2021/07/03 00:08:38;;;;;;;;;13.00;13.00;;;;;24.82;48.30;100852.84;5075757;27;45524;-51
2021/07/03 00:11:06;;;;;;;;;11.25;11.25;;;;;24.80;48.37;100854.81;5063582;28;45259;-52
2021/07/03 00:13:32;;;;;;;;;11.75;10.75;;;;;24.79;48.35;100863.94;5067257;28;45579;-51
2021/07/03 00:15:58;;;;;;;;;15.00;13.75;;;;;24.78;48.46;100854.06;5064977;27;47231;-52
2021/07/03 00:18:24;;;;;;;;;13.00;13.00;;;;;24.76;48.49;100850.59;5063115;28;45372;-52
2021/07/03 00:20:50;;;;;;;;;11.75;11.75;;;;;24.72;48.35;100849.97;5086413;27;45826;-50
2021/07/03 00:23:15;;;;;;;;;11.50;10.50;;;;;24.70;48.64;100851.94;5067558;27;45403;-52
2021/07/03 00:25:41;;;;;;;;;13.00;12.00;;;;;24.68;48.86;100850.34;5068934;28;47954;-49
2021/07/03 00:28:06;;;;;;;;;14.00;12.75;;;;;24.64;48.90;100852.41;5069688;28;45587;-49
2021/07/03 00:30:32;;;;;;;;;13.75;13.25;;;;;24.63;48.68;100847.97;5070134;28;45309;-53
2021/07/03 00:32:57;;;;;;;;;10.00;10.00;;;;;24.60;49.08;100843.66;5071970;28;45468;-52
2021/07/03 00:35:23;;;;;;;;;13.00;11.75;;;;;24.59;48.98;100852.78;5064693;27;47172;-50
2021/07/03 00:37:49;;;;;;;;;11.50;11.50;;;;;24.59;49.07;100843.78;5071237;28;45802;-52
2021/07/03 00:40:15;;;;;;;;;11.75;10.75;;;;;24.57;48.95;100841.19;5076104;28;45627;-49
2021/07/03 00:42:40;;;;;;;;;13.00;13.00;;;;;24.56;49.09;100844.91;5072285;27;45215;-51
2021/07/03 00:45:07;;;;;;;;;12.50;12.50;;;;;24.54;49.15;100852.28;5067429;27;47269;-52
2021/07/03 00:47:34;;;;;;;;;13.25;12.25;;;;;24.52;49.23;100848.84;5073055;27;45630;-54
2021/07/03 00:50:01;;;;;;;;;14.25;13.50;;;;;24.51;49.29;100846.22;5070300;27;45550;-52
2021/07/03 00:52:26;;;;;;;;;13.75;13.00;;;;;24.49;49.36;100845.47;5064845;28;45301;-52
2021/07/03 00:54:52;;;;;;;;;13.00;12.00;;;;;24.47;49.30;100847.44;5070600;27;49602;-52
2021/07/03 00:57:18;;;;;;;;;10.25;10.25;;;;;24.45;49.43;100841.28;5066255;28;45527;-52
2021/07/03 00:59:46;;;;;;;;;11.50;11.50;;;;;24.44;49.46;100844.97;5065032;27;45534;-54
2021/07/03 01:02:15;;;;;;;;;14.00;13.75;;;;;24.40;49.39;100841.66;5073706;27;45734;-52
2021/07/03 01:04:41;;;;;;;;;14.25;12.25;;;;;24.39;49.67;100826.34;5071823;28;47348;-54
2021/07/03 01:07:08;;;;;;;;;11.50;11.50;;;;;24.39;49.90;100828.19;5066186;28;45373;-53
2021/07/03 01:09:35;;;;;;;;;11.25;10.50;;;;;24.38;49.96;100829.16;5063221;28;45465;-52
2021/07/03 01:12:02;;;;;;;;;14.50;13.50;;;;;24.36;49.68;100827.44;5061670;28;45456;-54
2021/07/03 01:14:27;;;;;;;;;14.00;14.00;;;;;24.37;49.92;100833.72;5065255;27;48150;-52
2021/07/03 01:16:54;;;;;;;;;13.50;12.25;;;;;24.34;49.72;100832.13;5078796;27;45492;-54
2021/07/03 01:19:20;;;;;;;;;13.25;13.25;;;;;24.33;49.87;100833.09;5083515;27;45486;-53
2021/07/03 01:21:53;;;;;;;;;13.00;13.00;;;;;24.30;49.78;100830.63;5055572;28;45618;-52
2021/07/03 01:24:19;;;;;;;;;10.50;10.50;;;;;24.29;50.14;100814.47;5080004;27;47208;-53
2021/07/03 01:26:49;;;;;;;;;14.50;14.50;;;;;24.28;50.23;100820.88;5079331;27;45473;-50
2021/07/03 01:29:16;;;;;;;;;10.50;10.50;;;;;24.27;50.00;100808.28;5071533;28;45337;-54
2021/07/03 01:31:43;;;;;;;;;10.50;10.50;;;;;24.27;49.75;100814.59;5073680;27;45619;-54
2021/07/03 01:34:09;;;;;;;;;11.00;11.00;;;;;24.28;50.00;100810.03;5075654;28;47716;-52
2021/07/03 01:36:38;;;;;;;;;13.25;13.25;;;;;24.28;50.18;100808.16;5074999;27;45758;-53
2021/07/03 01:39:07;;;;;;;;;13.50;13.50;;;;;24.30;49.93;100802.66;5074069;28;45374;-52
2021/07/03 01:41:36;;;;;;;;;11.25;9.75;;;;;24.30;50.10;100805.38;5080216;28;45902;-53
2021/07/03 01:44:02;;;;;;;;;14.75;14.50;;;;;24.31;50.00;100804.38;5071567;28;46938;-54
2021/07/03 01:46:27;;;;;;;;;11.50;11.50;;;;;24.31;50.21;100798.97;5075559;27;45776;-52
2021/07/03 01:48:53;;;;;;;;;15.00;15.00;;;;;24.32;50.25;100795.25;5077120;27;45471;-53
2021/07/03 01:51:18;;;;;;;;;13.25;12.25;;;;;24.31;49.80;100801.66;5066957;27;45346;-53
2021/07/03 01:53:44;;;;;;;;;12.00;12.00;;;;;24.31;49.97;100797.13;5071840;28;47131;-52
2021/07/03 01:56:10;;;;;;;;;11.75;11.75;;;;;24.30;49.95;100800.81;5071635;28;45765;-53
2021/07/03 01:58:37;;;;;;;;;10.50;10.50;;;;;24.29;49.96;100800.91;5078196;28;45348;-54
2021/07/03 02:01:04;;;;;;;;;12.00;12.00;;;;;24.28;49.87;100802.75;5075333;28;45525;-50
2021/07/03 02:03:30;;;;;;;;;14.50;13.75;;;;;24.28;49.79;100797.31;5076877;28;48218;-50
2021/07/03 02:05:55;;;;;;;;;13.00;13.00;;;;;24.28;49.94;100793.75;5076201;28;45383;-53
2021/07/03 02:08:22;;;;;;;;;10.00;10.00;;;;;24.26;50.00;100790.25;5055508;28;45437;-51
2021/07/03 02:10:47;;;;;;;;;15.00;12.25;;;;;24.27;50.19;100792.03;5090836;27;45499;-53
2021/07/03 02:13:13;;;;;;;;;12.50;12.50;;;;;24.26;50.38;100796.56;5076245;27;46741;-50
2021/07/03 02:15:39;;;;;;;;;11.00;11.00;;;;;24.26;50.17;100791.13;5070322;27;45611;-54
2021/07/03 02:18:04;;;;;;;;;12.00;12.00;;;;;24.24;50.24;100793.09;5073624;27;45479;-53
2021/07/03 02:20:33;;;;;;;;;14.25;13.00;;;;;24.24;50.28;100794.94;5092024;27;45646;-53
2021/07/03 02:23:00;;;;;;;;;13.75;12.50;;;;;24.22;50.07;100789.66;5070055;28;47731;-53
2021/07/03 02:25:27;;;;;;;;;13.75;13.25;;;;;24.22;50.31;100796.91;5066159;28;45784;-51
2021/07/03 02:27:52;;;;;;;;;11.25;11.25;;;;;24.21;50.37;100781.63;5068845;28;46131;-51
2021/07/03 02:30:18;;;;;;;;;14.25;13.75;;;;;24.20;50.40;100793.47;5071816;27;45479;-53
2021/07/03 02:32:45;;;;;;;;;14.25;13.50;;;;;24.18;50.62;100798.16;5072622;27;45711;-51
2021/07/03 02:35:11;;;;;;;;;12.25;12.25;;;;;24.17;50.64;100796.41;5077449;27;45411;-53
2021/07/03 02:37:38;;;;;;;;;14.75;14.75;;;;;24.14;50.45;100797.53;5073951;27;46341;-52
2021/07/03 02:40:06;;;;;;;;;16.25;14.25;;;;;24.12;50.42;100794.03;5082037;27;45555;-54
2021/07/03 02:42:32;;;;;;;;;13.00;13.00;;;;;24.10;50.45;100787.88;5066236;27;47353;-50
2021/07/03 02:44:58;;;;;;;;;16.00;14.00;;;;;24.08;50.64;100793.44;5071445;27;45729;-51
2021/07/03 02:47:23;;;;;;;;;14.50;13.50;;;;;24.07;50.57;100788.13;5063579;27;45637;-52
2021/07/03 02:49:49;;;;;;;;;13.00;13.00;;;;;24.05;50.76;100788.25;5063221;28;45587;-52
2021/07/03 02:52:14;;;;;;;;;13.25;11.25;;;;;24.03;51.04;100782.09;5069022;28;47954;-50
2021/07/03 02:54:40;;;;;;;;;10.75;10.75;;;;;24.02;50.74;100793.06;5074510;27;45737;-53
2021/07/03 02:57:05;;;;;;;;;14.00;14.00;;;;;24.01;51.10;100789.47;5069776;27;45476;-51
2021/07/03 02:59:31;;;;;;;;;13.25;13.25;;;;;24.01;50.97;100788.59;5065570;27;45555;-51
2021/07/03 03:01:56;;;;;;;;;13.25;12.50;;;;;24.00;51.03;100787.72;5078268;27;45795;-52
2021/07/03 03:04:22;;;;;;;;;11.50;11.50;;;;;23.98;50.72;100784.25;5071444;27;45701;-52
2021/07/03 03:06:48;;;;;;;;;14.75;13.25;;;;;23.97;51.08;100784.38;5065906;27;45688;-51
2021/07/03 03:09:15;;;;;;;;;13.00;12.50;;;;;23.94;50.80;100784.63;5082492;27;45468;-53
2021/07/03 03:11:41;;;;;;;;;13.50;13.50;;;;;23.93;51.03;100788.31;5065399;27;47695;-51
2021/07/03 03:14:07;;;;;;;;;14.25;14.00;;;;;23.90;51.09;100778.59;5070535;28;45674;-52
2021/07/03 03:16:33;;;;;;;;;14.25;13.75;;;;;23.89;51.06;100773.28;5068420;27;45724;-51
2021/07/03 03:18:59;;;;;;;;;17.25;15.50;;;;;23.89;51.41;100776.00;5069943;28;45479;-52
2021/07/03 03:21:24;;;;;;;;;12.50;12.50;;;;;23.88;51.45;100785.06;5068490;27;47189;-53
2021/07/03 03:23:49;;;;;;;;;15.00;15.00;;;;;23.88;51.48;100785.94;5070977;28;45613;-49
2021/07/03 03:26:15;;;;;;;;;14.25;12.25;;;;;23.88;51.34;100780.53;5073395;28;45270;-54
2021/07/03 03:28:41;;;;;;;;;16.25;15.00;;;;;23.89;51.46;100776.00;5073529;28;45461;-54
2021/07/03 03:31:07;;;;;;;;;14.50;13.25;;;;;23.88;51.21;100775.09;5065082;27;47592;-52
2021/07/03 03:33:32;;;;;;;;;17.25;17.25;;;;;23.89;51.35;100776.00;5069490;28;45433;-53
2021/07/03 03:35:58;;;;;;;;;15.25;15.00;;;;;23.88;51.54;100766.97;5069753;27;45461;-53
2021/07/03 03:38:23;;;;;;;;;15.00;15.00;;;;;23.88;51.39;100766.09;5072434;27;45450;-51
2021/07/03 03:40:49;;;;;;;;;12.50;12.50;;;;;23.88;51.48;100766.97;5071087;27;47160;-54
2021/07/03 03:43:14;;;;;;;;;12.25;12.25;;;;;23.88;51.60;100769.69;5069014;27;45397;-53
2021/07/03 03:45:40;;;;;;;;;13.75;13.50;;;;;23.88;51.59;100764.25;5073747;27;45318;-54
2021/07/03 03:48:06;;;;;;;;;14.50;14.50;;;;;23.89;51.45;100767.88;5072059;27;45480;-52
2021/07/03 03:50:32;;;;;;;;;14.50;13.75;;;;;23.90;51.42;100770.47;5072902;27;46958;-50
2021/07/03 03:52:58;;;;;;;;;14.25;14.25;;;;;23.90;51.33;100777.72;5071978;28;45668;-53
2021/07/03 03:55:24;;;;;;;;;11.00;11.00;;;;;23.88;51.43;100772.38;5072006;27;45409;-51
2021/07/03 03:57:49;;;;;;;;;13.75;13.00;;;;;23.90;51.49;100783.13;5067720;28;45379;-50
2021/07/03 04:00:17;;;;;;;;;11.50;11.50;;;;;23.89;51.69;100785.00;5085902;27;46002;-53
2021/07/03 04:02:43;;;;;;;;;12.75;12.50;;;;;23.89;51.34;100787.69;5073447;28;45432;-54
2021/07/03 04:05:10;;;;;;;;;15.25;13.75;;;;;23.90;51.33;100791.28;5069584;27;45476;-53
2021/07/03 04:07:35;;;;;;;;;12.75;12.25;;;;;23.88;51.40;100795.91;5071915;27;45715;-53
2021/07/03 04:10:03;;;;;;;;;14.00;13.25;;;;;23.86;51.33;100798.75;5070367;28;46229;-53
2021/07/03 04:12:29;;;;;;;;;13.00;13.00;;;;;23.85;51.52;100797.03;5071492;27;45447;-55
2021/07/03 04:14:54;;;;;;;;;10.25;10.25;;;;;23.85;51.29;100785.31;5071206;28;45794;-54
2021/07/03 04:17:19;;;;;;;;;14.00;14.00;;;;;23.86;51.55;100790.63;5063482;28;45653;-54
2021/07/03 04:19:45;;;;;;;;;14.50;14.50;;;;;23.85;51.49;100794.31;5062376;27;45513;-51
2021/07/03 04:22:10;;;;;;;;;14.00;12.00;;;;;23.86;51.37;100792.47;5066699;28;45293;-54
2021/07/03 04:24:36;;;;;;;;;14.25;13.00;;;;;23.86;51.92;100804.16;5072261;27;45463;-53
2021/07/03 04:27:02;;;;;;;;;13.00;13.00;;;;;23.86;51.61;100801.47;5073794;28;45623;-51
2021/07/03 04:29:28;;;;;;;;;13.25;11.75;;;;;23.86;51.92;100797.88;5063246;27;48130;-53
2021/07/03 04:31:53;;;;;;;;;11.75;11.75;;;;;23.87;51.88;100805.91;5074988;27;45279;-53
2021/07/03 04:34:19;;;;;;;;;13.75;13.25;;;;;23.89;51.64;100800.38;5069740;27;45573;-49
2021/07/03 04:36:44;;;;;;;;;13.50;12.25;;;;;23.90;51.79;100805.69;5072079;27;45413;-54
2021/07/03 04:39:10;;;;;;;;;15.50;14.50;;;;;23.90;51.76;100800.28;5071293;28;46071;-53
2021/07/03 04:41:37;;;;;;;;;14.00;13.25;;;;;23.90;51.55;100802.97;5065581;27;45671;-51
2021/07/03 04:44:04;;;;;;;;;14.25;13.75;;;;;23.90;51.82;100797.56;5068163;28;45267;-53
2021/07/03 04:46:30;;;;;;;;;15.75;15.50;;;;;23.92;51.47;100802.84;5077195;27;45951;-53
2021/07/03 04:48:55;;;;;;;;;11.00;11.00;;;;;23.92;52.00;100803.72;5066665;28;47261;-54
2021/07/03 04:51:21;;;;;;;;;13.50;12.50;;;;;23.95;51.86;100810.75;5062231;28;45479;-54
2021/07/03 04:53:46;;;;;;;;;14.00;13.25;;;;;23.95;51.81;100814.31;5059749;28;45389;-53
2021/07/03 04:56:11;;;;;;;;;15.50;15.50;;;;;23.95;51.52;100814.31;5072894;28;45491;-54
2021/07/03 04:58:37;;;;;;;;;12.50;12.50;;;;;23.97;51.72;100811.50;5077782;28;46990;-53
2021/07/03 05:01:02;;;;;;;;;14.50;14.50;;;;;23.98;51.61;100816.78;5071205;27;45658;-53
2021/07/03 05:03:28;;;;;;;;;14.00;14.00;;;;;23.99;51.83;100815.81;5071135;27;45727;-52
2021/07/03 05:05:53;;;;;;;;;13.00;13.00;;;;;24.03;51.95;100819.19;5075223;28;45404;-52
2021/07/03 05:08:19;;;;;;;;;17.00;16.00;;;;;24.01;51.79;100816.59;5067145;28;47352;-53
2021/07/03 05:10:44;;;;;;;;;12.75;12.75;;;;;24.02;51.65;100812.88;5078481;27;45827;-54
2021/07/03 05:13:10;;;;;;;;;14.75;12.50;;;;;24.03;52.03;100811.91;5067006;28;45752;-53
2021/07/03 05:15:35;;;;;;;;;13.25;13.25;;;;;24.04;51.95;100800.06;5088440;27;45440;-53
2021/07/03 05:18:02;;;;;;;;;15.00;15.00;;;;;24.03;51.86;100798.34;5089029;27;45432;-52
2021/07/03 05:20:28;;;;;;;;;15.50;14.00;;;;;24.04;51.89;100796.50;5071962;27;46416;-53
2021/07/03 05:22:54;;;;;;;;;12.50;12.25;;;;;24.05;51.99;100795.53;5068045;28;45551;-53
2021/07/03 05:25:19;;;;;;;;;15.75;14.75;;;;;24.05;52.21;100793.66;5084118;27;45406;-53
2021/07/03 05:27:45;;;;;;;;;17.50;16.25;;;;;24.08;51.99;100798.00;5072456;27;47379;-53
2021/07/03 05:30:11;;;;;;;;;13.50;13.00;;;;;24.07;51.96;100793.53;5077170;27;45566;-52
2021/07/03 05:32:37;;;;;;;;;13.50;13.50;;;;;24.06;52.19;100789.97;5072200;28;45546;-51
2021/07/03 05:35:02;;;;;;;;;15.25;14.00;;;;;24.08;52.26;100784.44;5075467;27;45745;-52
2021/07/03 05:37:28;;;;;;;;;15.25;14.25;;;;;24.10;52.13;100784.31;5078944;28;46802;-54
2021/07/03 05:39:53;;;;;;;;;15.00;15.00;;;;;24.12;52.24;100783.19;5073809;27;45450;-51
2021/07/03 05:42:19;;;;;;;;;17.00;16.00;;;;;24.12;51.95;100780.50;5077672;28;45436;-54
2021/07/03 05:44:44;;;;;;;;;15.00;15.00;;;;;24.11;52.08;100789.59;5075922;28;45703;-51
2021/07/03 05:47:10;;;;;;;;;20.00;18.75;;;;;24.14;52.32;100793.91;5073341;27;48190;-51
2021/07/03 05:49:35;;;;;;;;;15.25;15.25;;;;;24.13;52.10;100789.47;5069713;27;45411;-53
2021/07/03 05:52:01;;;;;;;;;13.75;13.75;;;;;24.13;52.14;100786.78;5084866;27;45915;-52
2021/07/03 05:54:28;;;;;;;;;15.75;14.00;;;;;24.13;52.17;100794.91;5071132;28;45549;-52
2021/07/03 05:56:54;;;;;;;;;17.75;17.00;;;;;24.15;52.60;100795.69;5075779;28;46369;-53
2021/07/03 05:59:19;;;;;;;;;15.50;15.50;;;;;24.16;52.39;100792.84;5075885;27;45464;-52
2021/07/03 06:01:45;;;;;;;;;12.25;12.25;;;;;24.21;52.52;100798.78;5067480;28;45500;-52
2021/07/03 06:04:10;;;;;;;;;17.25;17.25;;;;;24.26;52.37;100791.13;5094932;27;46273;-53
2021/07/03 06:06:36;;;;;;;;;17.00;16.00;;;;;24.31;52.44;100788.97;5073388;28;47124;-53
2021/07/03 06:09:01;;;;;;;;;27.50;24.50;;;;;24.34;51.95;100788.72;5068742;27;45386;-55
2021/07/03 06:11:27;;;;;;;;;19.50;16.00;;;;;24.38;52.02;100789.34;5052181;28;45481;-53
2021/07/03 06:13:54;;;;;;;;;17.25;17.00;;;;;24.44;52.39;100791.59;5072596;28;45666;-51
2021/07/03 06:16:20;;;;;;;;;15.00;15.00;;;;;24.48;51.99;100801.22;5067773;28;47465;-52
2021/07/03 06:18:45;;;;;;;;;18.50;18.25;;;;;24.54;52.23;100799.88;5077488;27;46749;-50
2021/07/03 06:21:11;;;;;;;;;16.50;15.25;;;;;24.60;51.97;100802.09;5077254;28;45464;-52
2021/07/03 06:23:37;;;;;;;;;15.75;14.75;;;;;24.62;51.80;100806.41;5069273;28;45446;-50
2021/07/03 06:26:04;;;;;;;;;11.75;11.75;;;;;24.66;51.86;100801.63;5073282;28;46996;-52
2021/07/03 06:28:31;;;;;;;;;14.75;14.75;;;;;24.70;51.58;100813.97;5072959;27;45516;-52
2021/07/03 06:30:57;;;;;;;;;17.25;16.00;;;;;24.72;51.50;100811.13;5075976;27;45401;-49
2021/07/03 06:33:23;;;;;;;;;17.50;16.00;;;;;24.73;51.83;100815.56;5071911;28;45780;-50
2021/07/03 06:35:49;;;;;;;;;18.00;15.75;;;;;24.74;51.44;100809.13;5073142;27;47197;-55
2021/07/03 06:38:14;;;;;;;;;15.75;15.50;;;;;24.77;51.58;100808.88;5072946;27;45633;-54
2021/07/03 06:40:40;;;;;;;;;17.00;17.00;;;;;24.80;51.45;100805.94;5063767;28;45559;-54
2021/07/03 06:43:05;;;;;;;;;19.25;15.50;;;;;24.82;51.79;100799.41;5066665;28;45468;-52
2021/07/03 06:45:31;;;;;;;;;17.25;16.00;;;;;24.87;51.44;100799.91;5067492;28;47226;-52
2021/07/03 06:47:57;;;;;;;;;50.25;41.00;;;;;24.90;51.59;100804.19;5072552;27;45440;-52
2021/07/03 06:50:22;;;;;;;;;22.75;20.00;;;;;24.92;51.60;100815.84;5073535;28;45298;-53
2021/07/03 06:52:47;;;;;;;;;17.00;17.00;;;;;24.93;51.55;100801.28;5075006;27;45382;-51
2021/07/03 06:55:13;;;;;;;;;16.75;16.75;;;;;24.93;51.72;100810.28;5074351;27;46804;-53
2021/07/03 06:57:39;;;;;;;;;20.50;18.75;;;;;24.97;50.86;100827.19;5065999;28;46100;-53
2021/07/03 07:00:06;;;;;;;;;16.75;16.75;;;;;24.99;51.16;100824.34;5072997;28;45463;-52
2021/07/03 07:02:32;;;;;;;;;20.00;19.00;;;;;25.02;51.48;100819.53;5069336;28;45441;-52
2021/07/03 07:04:57;;;;;;;;;18.00;16.50;;;;;25.08;50.96;100823.63;5065999;28;46957;-53
2021/07/03 07:07:23;;;;;;;;;15.00;14.75;;;;;25.16;51.20;100818.47;5072865;28;45791;-52
2021/07/03 07:09:48;;;;;;;;;16.25;16.25;;;;;25.24;51.08;100815.97;5071781;28;45478;-53
2021/07/03 07:12:14;;;;;;;;;19.25;17.25;;;;;25.32;51.17;100828.94;5082442;27;45409;-53
2021/07/03 07:14:42;;;;;;;;;16.50;15.00;;;;;25.33;50.14;100826.09;5071635;28;48254;-54
2021/07/03 07:17:08;;;;;;;;;15.00;13.00;;;;;25.35;50.20;100820.53;5072869;28;45416;-53
2021/07/03 07:19:33;;;;;;;;;15.25;14.75;;;;;25.36;50.19;100824.97;5066341;28;45685;-53
2021/07/03 07:21:59;;;;;;;;;15.25;12.75;;;;;25.41;50.16;100830.88;5068126;28;45717;-53
2021/07/03 07:24:25;;;;;;;;;14.00;14.00;;;;;25.45;49.84;100827.81;5065758;28;47469;-54
2021/07/03 07:26:50;;;;;;;;;12.75;11.25;;;;;25.50;49.75;100830.13;5077088;28;45455;-53
2021/07/03 07:29:16;;;;;;;;;16.75;13.25;;;;;25.52;49.66;100837.16;5092218;27;45446;-52
2021/07/03 07:31:41;;;;;;;;;13.00;12.75;;;;;25.57;49.14;100838.66;5067874;28;45285;-53
2021/07/03 07:34:07;;;;;;;;;13.75;12.25;;;;;25.58;49.13;100843.97;5084243;27;47211;-54
2021/07/03 07:36:33;;;;;;;;;12.50;12.50;;;;;25.61;49.58;100851.00;5075702;28;45403;-53
2021/07/03 07:38:58;;;;;;;;;13.25;12.00;;;;;25.62;49.52;100850.84;5067469;27;45487;-54
2021/07/03 07:41:41;;;;;;;;;12.50;12.50;;;;;25.63;48.83;100847.16;5092469;27;45622;-51
2021/07/03 07:44:07;;;;;;;;;13.50;13.00;;;;;25.62;49.32;100859.00;5072650;27;45494;-53
2021/07/03 07:46:32;;;;;;;;;11.50;11.50;;;;;25.64;49.25;100856.16;5069031;27;45350;-52
2021/07/03 07:48:59;;;;;;;;;12.25;12.25;;;;;25.67;49.02;100855.94;5073187;28;45634;-53
2021/07/03 07:51:25;;;;;;;;;14.00;12.50;;;;;25.72;48.71;100860.00;5070412;28;47401;-54
2021/07/03 07:53:50;;;;;;;;;11.00;9.75;;;;;25.76;49.03;100855.19;5057479;28;45748;-52
2021/07/03 07:56:19;;;;;;;;;12.00;12.00;;;;;25.80;49.17;100859.41;5086789;27;45514;-54
2021/07/03 07:58:46;;;;;;;;;16.25;13.75;;;;;25.85;49.05;100868.03;5073264;27;45742;-52
2021/07/03 08:01:13;;;;;;;;;13.00;12.00;;;;;25.88;48.98;100873.19;5070559;28;46830;-52
2021/07/03 08:03:39;;;;;;;;;12.75;12.75;;;;;25.92;48.48;100868.34;5073106;28;45567;-53
2021/07/03 08:06:04;;;;;;;;;14.75;14.50;;;;;25.96;48.94;100853.53;5073996;28;45586;-52
2021/07/03 08:08:30;;;;;;;;;14.50;13.50;;;;;25.97;48.93;100853.41;5072532;27;45310;-51
2021/07/03 08:10:55;;;;;;;;;11.00;11.00;;;;;25.99;48.37;100850.53;5069630;28;47625;-53
2021/07/03 08:13:21;;;;;;;;;13.00;13.00;;;;;25.99;48.79;100856.84;5071563;28;45750;-52
2021/07/03 08:15:46;;;;;;;;;16.00;14.75;;;;;25.99;48.60;100850.53;5065172;28;45437;-53
2021/07/03 08:18:12;;;;;;;;;12.50;12.00;;;;;25.99;48.16;100847.81;5072781;28;45635;-54
2021/07/03 08:20:37;;;;;;;;;11.00;9.25;;;;;25.96;48.20;100846.22;5068880;28;48309;-50
2021/07/03 08:23:03;;;;;;;;;11.25;11.25;;;;;25.94;48.23;100852.81;5068046;28;45328;-53
2021/07/03 08:25:29;;;;;;;;;10.50;10.50;;;;;25.90;48.51;100854.88;5067363;28;46399;-53
2021/07/03 08:27:55;;;;;;;;;9.50;9.50;;;;;25.88;48.09;100859.59;5068144;28;45493;-54
2021/07/03 08:30:21;;;;;;;;;10.75;10.75;;;;;25.86;47.97;100850.72;5068167;28;47474;-54
2021/07/03 08:32:48;;;;;;;;;11.00;10.75;;;;;25.85;47.78;100856.28;5065552;28;45469;-52
2021/07/03 08:35:15;;;;;;;;;10.75;10.00;;;;;25.83;48.21;100855.53;5068098;28;45468;-52
2021/07/03 08:37:41;;;;;;;;;11.25;11.25;;;;;25.80;47.92;100870.28;5069451;27;45679;-54
2021/07/03 08:40:08;;;;;;;;;9.00;8.50;;;;;25.76;47.96;100853.31;5081129;27;47164;-53
2021/07/03 08:42:34;;;;;;;;;15.25;12.00;;;;;25.74;48.03;100854.44;5087798;27;45456;-54
2021/07/03 08:44:59;;;;;;;;;10.50;10.50;;;;;25.71;48.01;100855.56;5091403;27;45801;-55
2021/07/03 08:47:25;;;;;;;;;12.25;12.25;;;;;25.67;48.25;100862.22;5089051;27;45393;-57
2021/07/03 08:49:56;;;;;;;;;10.50;10.50;;;;;25.66;48.10;100865.03;5086717;27;48196;-53
2021/07/03 08:52:23;;;;;;;;;11.00;11.00;;;;;25.61;48.35;100861.84;5059179;28;45673;-53
2021/07/03 08:55:02;;;;;;;;;12.00;12.00;;;;;25.59;48.34;100861.13;5076672;27;45979;-54
2021/07/03 08:57:31;;;;;;;;;14.25;13.25;;;;;25.58;48.41;100862.13;5078446;28;45920;-55
2021/07/03 09:00:00;;;;;;;;;11.00;11.00;;;;;25.58;48.29;100873.00;5057505;28;47604;-55
2021/07/03 09:02:37;;;;;;;;;12.50;11.50;;;;;25.57;48.76;100883.00;5077125;27;45631;-54
2021/07/03 09:05:07;;;;;;;;;11.75;11.00;;;;;25.55;48.29;100876.81;5071347;28;45562;-55
2021/07/03 09:07:35;;;;;;;;;13.75;13.25;;;;;25.52;48.66;100874.34;5072175;28;45300;-55
2021/07/03 09:10:02;;;;;;;;;11.50;11.25;;;;;25.49;48.91;100872.75;5077946;28;45476;-53
2021/07/03 09:12:32;;;;;;;;;13.33;11.33;;;;;25.49;48.63;100877.31;5064718;28;46003;-52
2021/07/03 09:15:10;;;;;;;;;11.25;10.50;;;;;25.51;48.69;100876.19;5078965;27;45942;-55
2021/07/03 09:17:50;;;;;;;;;13.50;13.50;;;;;25.53;49.29;100871.50;5055705;28;45388;-55
2021/07/03 09:20:40;;;;;;;;;11.25;11.25;;;;;25.57;48.73;100869.41;5059474;28;48768;-56
2021/07/03 09:23:08;;;;;;;;;12.00;12.00;;;;;25.59;49.00;100863.84;5061693;27;45538;-55
2021/07/03 09:25:35;;;;;;;;;13.50;12.75;;;;;25.62;49.24;100869.88;5057091;28;45449;-54
2021/07/03 09:28:13;;;;;;;;;12.50;12.50;;;;;25.64;49.02;100869.75;5078653;27;45656;-56
2021/07/03 09:30:39;;;;;;;;;12.50;11.25;;;;;25.65;48.90;100871.47;5074538;28;48275;-55
2021/07/03 09:33:05;;;;;;;;;11.75;10.75;;;;;25.66;48.93;100875.91;5058525;28;46035;-57
2021/07/03 09:35:31;;;;;;;;;14.50;13.25;;;;;25.65;48.88;100876.91;5057758;28;45617;-56
2021/07/03 09:38:05;;;;;;;;;10.25;10.25;;;;;25.66;49.53;100890.38;5062597;27;45347;-55
2021/07/03 09:40:33;;;;;;;;;12.25;11.25;;;;;25.67;49.75;100883.97;5062735;28;45643;-56
2021/07/03 09:43:04;;;;;;;;;13.50;13.50;;;;;25.68;48.95;100882.13;5080005;28;45265;-55
2021/07/03 09:45:29;;;;;;;;;14.00;13.75;;;;;25.70;48.96;100888.31;5070418;27;45605;-54
2021/07/03 09:48:06;;;;;;;;;11.25;10.25;;;;;25.71;48.85;100895.47;5076350;27;45781;-56
2021/07/03 09:50:32;;;;;;;;;14.50;13.50;;;;;25.74;49.23;100895.22;5072549;28;48283;-57
2021/07/03 09:53:02;;;;;;;;;14.00;14.00;;;;;25.77;48.98;100890.38;5075583;28;45542;-57
2021/07/03 09:55:28;;;;;;;;;12.50;11.25;;;;;25.81;48.84;100896.47;5081038;28;45394;-51
2021/07/03 09:57:53;;;;;;;;;13.25;13.25;;;;;25.84;49.04;100898.06;5062329;28;45438;-52
2021/07/03 10:00:19;;;;;;;;;11.50;10.75;;;;;25.88;49.19;100899.53;5060735;28;48440;-52
2021/07/03 10:02:45;;;;;;;;;13.50;12.00;;;;;25.93;48.78;100903.59;5060848;27;45428;-60
2021/07/03 10:05:12;;;;;;;;;10.50;10.50;;;;;25.96;48.97;100894.31;5073077;28;45796;-60
2021/07/03 10:07:44;;;;;;;;;15.50;13.50;;;;;26.03;49.24;100898.22;5080415;27;45811;-68
2021/07/03 10:10:29;;;;;;;;;14.50;14.50;;;;;26.09;48.70;100901.31;5080585;27;45496;-67
2021/07/03 10:13:05;;;;;;;;;15.75;15.25;;;;;26.15;49.09;100905.38;5074223;28;45366;-66
2021/07/03 10:15:34;;;;;;;;;13.75;13.25;;;;;26.20;48.70;100896.84;5074924;28;45759;-66
2021/07/03 10:18:08;;;;;;;;;12.50;11.50;;;;;26.23;48.56;100893.84;5071191;28;45296;-66
2021/07/03 10:20:34;;;;;;;;;15.25;14.25;;;;;26.24;48.37;100896.44;5059453;28;46130;-66
2021/07/03 10:23:00;;;;;;;;;13.00;12.25;;;;;26.26;48.27;100882.69;5072267;27;45285;-66
2021/07/03 10:25:38;;;;;;;;;12.50;12.50;;;;;26.28;48.84;100888.88;5071855;28;45665;-67
2021/07/03 10:28:08;;;;;;;;;12.75;12.00;;;;;26.30;47.93;100879.63;5079784;28;45454;-66
2021/07/03 10:30:38;;;;;;;;;13.25;13.25;;;;;26.29;47.89;100886.03;5078572;27;47021;-67
2021/07/03 10:33:10;;;;;;;;;12.25;12.25;;;;;26.29;48.32;100877.00;5079491;27;45326;-72
2021/07/03 10:35:40;;;;;;;;;13.25;12.75;;;;;26.29;48.18;100886.03;5044766;27;45604;-69
2021/07/03 10:38:15;;;;;;;;;15.50;15.50;;;;;26.32;48.24;100884.91;5074993;27;45467;-69
2021/07/03 10:40:40;;;;;;;;;12.50;12.50;;;;;26.36;47.99;100886.41;5070480;27;48511;-71
2021/07/03 10:43:08;;;;;;;;;12.50;12.00;;;;;26.39;47.66;100880.69;5064403;28;45377;-69
2021/07/03 10:45:47;;;;;;;;;13.75;13.75;;;;;26.42;47.51;100887.72;5076161;28;45556;-69
2021/07/03 10:48:15;;;;;;;;;17.00;15.00;;;;;26.44;47.43;100885.78;5081756;27;45491;-68
2021/07/03 10:50:40;;;;;;;;;12.00;12.00;;;;;26.47;47.37;100889.09;5077349;27;46898;-68
2021/07/03 10:53:06;;;;;;;;;11.75;11.00;;;;;26.50;47.67;100890.66;5067547;27;45405;-68
2021/07/03 10:55:40;;;;;;;;;13.75;13.00;;;;;26.49;47.75;100895.25;5071987;27;45463;-68
2021/07/03 10:58:14;;;;;;;;;12.00;12.00;;;;;26.48;46.86;100895.38;5060838;28;45377;-68
2021/07/03 11:00:40;;;;;;;;;13.00;12.75;;;;;26.49;47.32;100884.38;5076046;28;48209;-68
2021/07/03 11:03:17;;;;;;;;;12.50;11.25;;;;;26.48;47.30;100888.09;5060441;28;45282;-68
2021/07/03 11:05:42;;;;;;;;;14.75;13.25;;;;;26.48;46.81;100874.47;5078670;27;45323;-68
2021/07/03 11:08:10;;;;;;;;;13.00;13.00;;;;;26.48;47.46;100881.78;5077382;27;45410;-67